CZ-0024 weather

Hospital Heliport
Chrudim, Pardubice Region, Czechia

Public forecast

Using degrees Celsius for public forecast. Weather courtesy of forecast.io.

METAR (pilot weather report)

Closest report is Pardubice Airport, 5.1 nm (9.4 km) NNW. Retrieved 2019/08/26 09:00 UTC (22 minutes ago):

LKPD 260900Z 08003KT 040V150 9999 FEW030 SCT130 BKN200 26/18 Q1021 NOSIG RMK BLU BLU

TAF (pilot weather forecast)

Closest forecast is Pardubice Airport, 5.1 nm (9.4 km) NNW. Retrieved 2019/08/26 06:00 UTC (3 hours ago):

TAF LKPD 260500Z 2606/2706 09004KT CAVOK BECMG 2608/2610 10010KT TEMPO 2611/2620 10014KT 7000 SHRA SCT035TCU PROB30 TEMPO 2612/2618 12015G25KT 5000 TSRA BKN030CB BECMG 2619/2621 10004KT